メインページ
METAR-TAF:

METAR-TAF

空港 :

カイエンヌ, フランス領ギアナ

カイエンヌ・フェリックス・エブエ国際空港

緯度: 04-50N, 経度: 052-22W, 海抜: 105m

現時点の気象観測

当レポートは16分前の02:00(UTC)に作成
変向風 1kt
気温 25°C
湿度 94%
気圧 1014 hPa
視程10km以上
高度1400ftの雲はほとんどない
高度25000ftの千切れ雲あり

METAR: SOCA 010200Z AUTO VRB01KT 9999 FEW014 BKN250 25/24 Q1014 TEMPO 3000 SHRA SCT015TCU BKN035

時間: 23:16 (02:16 UTC)

予報

当レポートは3時間16分前の23:00(UTC)に作成
予報は01日の 00時(UTC)から 01日の 24時(UTC)まで有効
変向風 2kt
視程10km以上
高度2000ftの千切れ雲あり
01日の 00時(UTC)から 01日の 24時(UTC)まで一時的に
視程: 3000m
高度1500ftの雲は散在している, 塔状積雲.
高度3500ftの千切れ雲あり
にわか雨
01日の 1200時(UTC)から
の風 10kt
視程10km以上
高度1500ftの雲は散在している
高度3000ftの千切れ雲あり
確率 30% :
01日の 12時(UTC)から 01日の 18時(UTC)まで一時的に
の風 15kt、最大25ktの突風を伴う
視程: 1000m
高度500ftの雲はほとんどない
高度1000ftの雲は散在している, 積乱雲.
高度1200ftの雲は散在している, 塔状積雲.
高度1500ftの千切れ雲あり
激しい雷雨, 雨

TAF: SOCA 302300Z 0100/0124 VRB02KT 9999 BKN020 TEMPO 0100/0124 3000 SHRA SCT015TCU BKN035 FM011200 08010KT 9999 SCT015 BKN030 PROB30 TEMPO 0112/0118 10015G25KT 1000 TSRA FEW005 SCT010CB SCT012TCU BKN015

4,000以上の空港の気象観測と天気予報(METAR報とTAF報)

利用可能な観測所は地図上に黄色い丸と赤い丸で示す。

丸の上にカーソルを重ねると観測所名を参照できる。

次にクリックすると気象観測と天気予報を参照できる。

マップの切り替え:黒色「×」印の緑ボタンをクリックして拡大、「-」印の緑ボタンをクリックして縮小、緑色の三角印をクリックして隣りの地図に切り替え


METAR-TAF: